Terminal Aerodrome Forecast
Issued by NWS Pittsburgh, PA

Current Version | Previous Version | Graphics & Text | Print | Product List | Glossary Off
Versions: 1 2 3 4 5 6 7 8 9 10 11 12 13 14 15 16 17 18 19 20 21 22 23 24 25 26 27 28

000
FTUS41 KPBZ 270531
TAFPIT
TAF
KPIT 270531Z 2706/2812 20003KT 5SM -RA BR BKN040
      TEMPO 2706/2707 2SM RA BR OVC020
     FM271000 VRB05KT 3SM BR BKN020
     FM271600 22010KT P6SM BKN050
     FM280500 24006KT 6SM -RA OVC040
     FM280900 25004KT 5SM BR OVC030=

USA.gov is the U.S. government's official web portal to all federal, state and local government web resources and services.